createdAt,value
2022-10-01T00:02:21.375Z,9.07
2022-10-01T00:04:48.899Z,9.57
2022-10-01T00:07:17.255Z,8.47
2022-10-01T00:09:46.953Z,9.85
2022-10-01T00:12:17.092Z,10.60
2022-10-01T00:14:44.859Z,9.57
2022-10-01T00:17:12.733Z,10.02
2022-10-01T00:19:42.349Z,10.80
2022-10-01T00:22:11.324Z,9.18
2022-10-01T00:24:38.792Z,9.82
2022-10-01T00:27:07.372Z,10.63
2022-10-01T00:29:36.791Z,10.98
2022-10-01T00:32:05.414Z,10.50
2022-10-01T00:34:34.372Z,11.57
2022-10-01T00:37:04.913Z,12.25
2022-10-01T00:39:32.500Z,15.10
2022-10-01T00:42:00.275Z,13.75
2022-10-01T00:44:37.789Z,13.57
2022-10-01T00:47:18.243Z,12.63
2022-10-01T00:49:47.543Z,13.25
2022-10-01T00:52:23.039Z,13.98
2022-10-01T00:54:56.147Z,13.65
2022-10-01T00:57:27.212Z,13.33
2022-10-01T00:59:57.810Z,15.65
2022-10-01T01:02:28.553Z,13.50
2022-10-01T01:04:56.722Z,14.35
2022-10-01T01:07:25.006Z,12.40
2022-10-01T01:09:57.427Z,13.40
2022-10-01T01:12:56.067Z,13.07
2022-10-01T01:15:27.288Z,13.52
2022-10-01T01:18:22.656Z,12.70
2022-10-01T01:21:15.908Z,13.38
2022-10-01T01:24:08.877Z,12.10
2022-10-01T01:27:09.518Z,14.27
2022-10-01T01:30:10.964Z,13.00
2022-10-01T01:32:54.166Z,12.20
2022-10-01T01:35:32.107Z,10.90
2022-10-01T01:38:21.678Z,13.83
2022-10-01T01:40:53.182Z,13.75
2022-10-01T01:43:31.606Z,17.83
2022-10-01T01:46:04.711Z,14.02
2022-10-01T01:48:36.816Z,13.60
2022-10-01T01:51:17.407Z,14.50
2022-10-01T01:53:45.588Z,14.30
2022-10-01T01:56:14.797Z,14.00
2022-10-01T01:58:52.471Z,15.57
2022-10-01T02:01:45.319Z,14.98
2022-10-01T02:04:37.295Z,16.57
2022-10-01T02:07:35.403Z,17.42
2022-10-01T02:10:24.812Z,20.20
2022-10-01T02:13:07.387Z,18.38
2022-10-01T02:15:55.526Z,17.98
2022-10-01T02:18:54.789Z,17.60
2022-10-01T02:21:38.971Z,17.67
2022-10-01T02:24:23.065Z,16.13
2022-10-01T02:26:54.630Z,18.58
2022-10-01T02:29:25.439Z,16.80
2022-10-01T02:31:57.751Z,14.10
2022-10-01T02:34:29.378Z,15.68
2022-10-01T02:37:01.510Z,14.75
2022-10-01T02:39:34.070Z,14.77
2022-10-01T02:42:04.422Z,16.60
2022-10-01T02:44:39.965Z,14.40
2022-10-01T02:47:21.524Z,16.55
2022-10-01T02:49:52.048Z,16.35
2022-10-01T02:52:42.219Z,14.88
2022-10-01T02:55:13.589Z,16.80
2022-10-01T02:57:42.733Z,14.60
2022-10-01T03:00:22.010Z,13.55
2022-10-01T03:02:50.712Z,14.20
2022-10-01T03:05:38.543Z,13.90
2022-10-01T03:08:07.348Z,12.18
2022-10-01T03:10:36.014Z,12.00
2022-10-01T03:13:07.845Z,12.02
2022-10-01T03:15:35.380Z,14.93
2022-10-01T03:18:02.875Z,11.73
2022-10-01T03:20:31.396Z,11.60
2022-10-01T03:22:58.829Z,11.93
2022-10-01T03:25:26.620Z,12.13
2022-10-01T03:27:55.364Z,12.82
2022-10-01T03:30:26.309Z,15.68
2022-10-01T03:32:53.766Z,12.93
2022-10-01T03:35:21.496Z,12.77
2022-10-01T03:37:49.636Z,10.55
2022-10-01T03:40:17.472Z,12.75
2022-10-01T03:42:46.419Z,12.13
2022-10-01T03:45:15.137Z,11.82
2022-10-01T03:47:45.094Z,11.80
2022-10-01T03:50:14.188Z,11.45
2022-10-01T03:52:43.998Z,11.15
2022-10-01T03:55:11.770Z,11.25
2022-10-01T03:57:39.243Z,11.68
2022-10-01T04:00:10.349Z,10.33
2022-10-01T04:02:40.518Z,11.65
2022-10-01T04:05:09.206Z,13.57
2022-10-01T04:07:36.737Z,11.27
2022-10-01T04:10:04.669Z,13.80
2022-10-01T04:12:32.132Z,11.33
2022-10-01T04:14:59.685Z,11.75
2022-10-01T04:17:30.496Z,13.18
2022-10-01T04:20:00.557Z,10.68
2022-10-01T04:22:29.355Z,8.93
2022-10-01T04:24:59.112Z,9.77
2022-10-01T04:27:27.273Z,9.38
2022-10-01T04:29:57.027Z,11.18
2022-10-01T04:32:24.731Z,9.68
2022-10-01T04:34:54.132Z,12.02
2022-10-01T04:37:24.283Z,10.37
2022-10-01T04:39:51.955Z,11.20
2022-10-01T04:42:22.673Z,11.57
2022-10-01T04:44:51.887Z,12.20
2022-10-01T04:47:19.294Z,10.70
2022-10-01T04:49:49.299Z,11.30
2022-10-01T04:52:19.587Z,10.00
2022-10-01T04:54:47.492Z,10.05
2022-10-01T04:57:14.933Z,9.95
2022-10-01T04:59:42.529Z,9.60
2022-10-01T05:02:10.454Z,8.23
2022-10-01T05:04:38.438Z,8.95
2022-10-01T05:07:07.685Z,11.38
2022-10-01T05:09:35.418Z,10.35
2022-10-01T05:12:03.109Z,11.25
2022-10-01T05:14:31.579Z,8.87
2022-10-01T05:17:00.510Z,9.93
2022-10-01T05:19:32.813Z,10.23
2022-10-01T05:22:00.593Z,10.93
2022-10-01T05:24:30.022Z,13.27
2022-10-01T05:26:58.159Z,10.60
2022-10-01T05:29:26.189Z,9.65
2022-10-01T05:31:54.681Z,9.13
2022-10-01T05:34:22.911Z,9.70
2022-10-01T05:36:55.750Z,11.15
2022-10-01T05:39:23.838Z,10.23
2022-10-01T05:41:56.812Z,9.38
2022-10-01T05:44:25.619Z,12.15
2022-10-01T05:46:54.453Z,12.07
2022-10-01T05:49:27.106Z,9.48
2022-10-01T05:51:54.554Z,10.23
2022-10-01T05:54:23.487Z,10.43
2022-10-01T05:56:51.748Z,14.40
2022-10-01T05:59:21.040Z,10.77
2022-10-01T06:01:48.692Z,14.25
2022-10-01T06:04:17.105Z,12.40
2022-10-01T06:06:48.101Z,14.35
2022-10-01T06:09:16.098Z,15.20
2022-10-01T06:11:45.467Z,13.73
2022-10-01T06:14:14.291Z,12.27
2022-10-01T06:16:42.049Z,13.57
2022-10-01T06:19:09.909Z,11.52
2022-10-01T06:21:38.224Z,10.70
2022-10-01T06:24:06.109Z,10.70
2022-10-01T06:26:33.577Z,8.77
2022-10-01T06:29:02.436Z,11.27
2022-10-01T06:31:30.872Z,9.93
2022-10-01T06:33:58.433Z,9.93
2022-10-01T06:36:25.957Z,10.00
2022-10-01T06:38:53.474Z,9.85
2022-10-01T06:41:21.010Z,8.90
2022-10-01T06:43:50.027Z,8.75
2022-10-01T06:46:17.538Z,8.75
2022-10-01T06:48:45.018Z,8.82
2022-10-01T06:51:12.539Z,9.70
2022-10-01T06:53:39.954Z,8.73
2022-10-01T06:56:08.244Z,9.18
2022-10-01T06:58:35.793Z,8.55
2022-10-01T07:01:04.782Z,9.88
2022-10-01T07:03:32.458Z,9.85
2022-10-01T07:06:05.123Z,9.97
2022-10-01T07:08:34.615Z,8.80
2022-10-01T07:11:04.029Z,9.63
2022-10-01T07:13:31.509Z,8.85
2022-10-01T07:16:04.122Z,8.30
2022-10-01T07:18:31.720Z,9.50
2022-10-01T07:20:59.265Z,10.18
2022-10-01T07:23:28.485Z,7.65
2022-10-01T07:25:55.987Z,9.55
2022-10-01T07:28:27.236Z,9.05
2022-10-01T07:31:07.034Z,10.10
2022-10-01T07:33:34.787Z,9.07
2022-10-01T07:36:07.409Z,9.73
2022-10-01T07:38:35.870Z,8.40
2022-10-01T07:41:03.882Z,8.07
2022-10-01T07:43:33.198Z,8.00
2022-10-01T07:46:02.270Z,10.40
2022-10-01T07:48:30.115Z,9.27
2022-10-01T07:50:58.119Z,7.88
2022-10-01T07:53:27.095Z,9.75
2022-10-01T07:55:55.093Z,8.13
2022-10-01T07:58:24.416Z,8.32
2022-10-01T08:00:56.376Z,8.13
2022-10-01T08:03:24.649Z,7.97
2022-10-01T08:05:53.914Z,8.20
2022-10-01T08:08:23.928Z,7.70
2022-10-01T08:10:51.514Z,7.65
2022-10-01T08:13:19.017Z,9.10
2022-10-01T08:15:50.825Z,11.32
2022-10-01T08:18:18.318Z,10.52
2022-10-01T08:20:47.106Z,14.27
2022-10-01T08:23:16.600Z,11.05
2022-10-01T08:25:45.929Z,9.40
2022-10-01T08:28:13.603Z,9.13
2022-10-01T08:30:42.786Z,12.10
2022-10-01T08:33:14.482Z,12.60
2022-10-01T08:35:43.890Z,14.30
2022-10-01T08:38:12.702Z,10.63
2022-10-01T08:40:47.611Z,11.00
2022-10-01T08:43:37.961Z,12.70
2022-10-01T08:46:13.972Z,12.10
2022-10-01T08:49:01.890Z,12.15
2022-10-01T08:51:43.727Z,11.43
2022-10-01T08:54:41.369Z,13.43
2022-10-01T08:57:37.687Z,10.13
2022-10-01T09:00:12.530Z,8.07
2022-10-01T09:02:42.270Z,11.77
2022-10-01T09:05:38.294Z,11.00
2022-10-01T09:08:43.973Z,8.73
2022-10-01T09:11:27.767Z,10.50
2022-10-01T09:14:11.817Z,12.00
2022-10-01T09:17:06.345Z,9.55
2022-10-01T09:20:01.724Z,9.73
2022-10-01T09:22:51.825Z,13.98
2022-10-01T09:25:25.229Z,11.40
2022-10-01T09:28:00.572Z,9.13
2022-10-01T09:30:30.515Z,9.70
2022-10-01T09:33:12.308Z,11.80
2022-10-01T09:35:49.140Z,9.52
2022-10-01T09:38:31.566Z,8.93
2022-10-01T09:40:59.808Z,8.40
2022-10-01T09:43:40.467Z,9.90
2022-10-01T09:46:13.818Z,7.43
2022-10-01T09:49:08.695Z,8.02
2022-10-01T09:51:45.413Z,10.68
2022-10-01T09:54:26.727Z,8.87
2022-10-01T09:56:58.774Z,8.30
2022-10-01T09:59:35.199Z,8.10
2022-10-01T10:02:08.613Z,8.52
2022-10-01T10:04:38.863Z,8.25
2022-10-01T10:07:06.540Z,7.77
2022-10-01T10:09:36.153Z,9.27
2022-10-01T10:12:03.979Z,7.28
2022-10-01T10:14:38.395Z,8.73
2022-10-01T10:17:12.087Z,7.63
2022-10-01T10:19:41.506Z,7.83
2022-10-01T10:22:25.157Z,9.63
2022-10-01T10:24:54.368Z,7.13
2022-10-01T10:27:27.092Z,10.00
2022-10-01T10:30:09.096Z,7.93
2022-10-01T10:32:37.002Z,7.33
2022-10-01T10:35:10.822Z,7.82
2022-10-01T10:37:45.516Z,7.85
2022-10-01T10:40:27.043Z,8.85
2022-10-01T10:42:58.891Z,10.45
2022-10-01T10:45:44.238Z,8.10
2022-10-01T10:48:17.346Z,10.10
2022-10-01T10:50:46.577Z,8.48
2022-10-01T10:53:26.200Z,7.97
2022-10-01T10:55:56.375Z,7.03
2022-10-01T10:58:30.313Z,11.33
2022-10-01T11:01:13.853Z,7.35
2022-10-01T11:03:53.613Z,9.38
2022-10-01T11:06:21.201Z,10.60
2022-10-01T11:08:57.963Z,7.80
2022-10-01T11:11:44.088Z,6.80
2022-10-01T11:14:31.652Z,8.68
2022-10-01T11:17:18.850Z,8.15
2022-10-01T11:19:55.765Z,8.30
2022-10-01T11:22:52.751Z,8.95
2022-10-01T11:25:27.434Z,8.73
2022-10-01T11:28:05.032Z,9.23
2022-10-01T11:30:54.547Z,8.23
2022-10-01T11:33:58.108Z,8.77
2022-10-01T11:36:55.446Z,8.05
2022-10-01T11:39:27.760Z,11.07
2022-10-01T11:42:20.099Z,7.25
2022-10-01T11:44:57.428Z,7.28
2022-10-01T11:47:37.018Z,8.55
2022-10-01T11:50:19.286Z,7.80
2022-10-01T11:53:07.039Z,8.60
2022-10-01T11:56:00.150Z,8.60
2022-10-01T11:58:53.206Z,8.55
2022-10-01T12:01:40.340Z,7.80
2022-10-01T12:04:14.609Z,7.97
2022-10-01T12:07:06.390Z,8.50
2022-10-01T12:09:53.965Z,6.93
2022-10-01T12:12:28.259Z,9.15
2022-10-01T12:15:17.128Z,8.13
2022-10-01T12:18:06.900Z,7.15
2022-10-01T12:20:43.812Z,8.80
2022-10-01T12:23:22.167Z,8.07
2022-10-01T12:26:01.958Z,7.38
2022-10-01T12:28:53.600Z,8.43
2022-10-01T12:31:35.190Z,7.63
2022-10-01T12:34:23.070Z,7.73
2022-10-01T12:37:22.053Z,7.05
2022-10-01T12:40:08.504Z,9.60
2022-10-01T12:42:49.930Z,8.80
2022-10-01T12:45:45.591Z,7.50
2022-10-01T12:48:39.767Z,7.97
2022-10-01T12:51:44.403Z,7.43
2022-10-01T12:54:50.894Z,7.18
2022-10-01T12:57:37.141Z,8.00
2022-10-01T13:00:20.077Z,8.27
2022-10-01T13:03:17.836Z,7.90
2022-10-01T13:06:06.582Z,8.65
2022-10-01T13:08:43.303Z,8.88
2022-10-01T13:11:36.635Z,8.77
2022-10-01T13:14:07.490Z,7.50
2022-10-01T13:16:44.094Z,8.10
2022-10-01T13:19:18.611Z,8.57
2022-10-01T13:22:17.444Z,8.23
2022-10-01T13:25:21.473Z,8.07
2022-10-01T13:28:12.008Z,8.05
2022-10-01T13:31:01.692Z,7.10
2022-10-01T13:33:32.417Z,6.97
2022-10-01T13:36:02.226Z,9.23
2022-10-01T13:38:41.006Z,7.63
2022-10-01T13:41:25.698Z,7.60
2022-10-01T13:43:59.523Z,10.43
2022-10-01T13:46:31.456Z,10.20
2022-10-01T13:49:21.654Z,8.20
2022-10-01T13:51:49.075Z,7.85
2022-10-01T13:54:37.591Z,8.63
2022-10-01T13:57:22.901Z,8.57
2022-10-01T14:00:00.037Z,8.80
2022-10-01T14:02:39.778Z,8.75
2022-10-01T14:05:26.089Z,10.45
2022-10-01T14:07:59.330Z,9.27
2022-10-01T14:10:56.729Z,8.23
2022-10-01T14:13:45.369Z,9.40
2022-10-01T14:16:14.387Z,8.43
2022-10-01T14:18:45.272Z,8.73
2022-10-01T14:22:00.328Z,10.80
2022-10-01T14:24:42.047Z,8.20
2022-10-01T14:27:39.189Z,10.15
2022-10-01T14:30:13.676Z,9.13
2022-10-01T14:33:18.444Z,8.93
2022-10-01T14:36:06.984Z,9.20
2022-10-01T14:38:34.843Z,11.03
2022-10-01T14:41:02.379Z,8.98
2022-10-01T14:43:31.765Z,10.27
2022-10-01T14:46:19.014Z,11.10
2022-10-01T14:48:58.124Z,8.85
2022-10-01T14:51:28.555Z,13.23
2022-10-01T14:53:59.247Z,9.88
2022-10-01T14:56:28.495Z,11.85
2022-10-01T14:59:03.031Z,11.77
2022-10-01T15:01:31.797Z,11.43
2022-10-01T15:03:59.298Z,14.77
2022-10-01T15:06:30.242Z,12.30
2022-10-01T15:09:12.845Z,14.77
2022-10-01T15:11:44.482Z,13.90
2022-10-01T15:14:19.424Z,13.65
2022-10-01T15:16:47.464Z,15.47
2022-10-01T15:19:20.890Z,12.70
2022-10-01T15:21:54.789Z,14.98
2022-10-01T15:24:37.099Z,19.85
2022-10-01T15:27:07.106Z,12.32
2022-10-01T15:29:35.758Z,13.77
2022-10-01T15:32:04.383Z,12.68
2022-10-01T15:34:32.817Z,10.98
2022-10-01T15:37:01.253Z,12.32
2022-10-01T15:39:37.799Z,11.68
2022-10-01T15:42:20.854Z,11.83
2022-10-01T15:44:50.257Z,10.43
2022-10-01T15:47:21.172Z,10.20
2022-10-01T15:50:18.740Z,10.05
2022-10-01T15:52:52.287Z,10.18
2022-10-01T15:55:24.096Z,10.00
2022-10-01T15:57:57.646Z,11.55
2022-10-01T16:00:31.635Z,11.55
2022-10-01T16:02:59.471Z,11.18
2022-10-01T16:05:31.790Z,9.73
2022-10-01T16:07:59.293Z,9.63
2022-10-01T16:10:34.897Z,9.88
2022-10-01T16:13:32.105Z,10.13
2022-10-01T16:16:15.368Z,11.05
2022-10-01T16:18:43.889Z,11.68
2022-10-01T16:21:12.151Z,10.87
2022-10-01T16:23:50.147Z,12.05
2022-10-01T16:26:34.698Z,10.18
2022-10-01T16:29:25.697Z,11.30
2022-10-01T16:31:53.640Z,14.80
2022-10-01T16:34:21.373Z,8.73
2022-10-01T16:36:49.130Z,9.90
2022-10-01T16:39:16.875Z,8.38
2022-10-01T16:42:06.161Z,9.13
2022-10-01T16:44:40.312Z,9.30
2022-10-01T16:47:10.481Z,11.57
2022-10-01T16:49:39.113Z,9.98
2022-10-01T16:52:06.744Z,10.25
2022-10-01T16:54:34.578Z,10.88
2022-10-01T16:57:04.887Z,9.85
2022-10-01T16:59:34.006Z,13.23
2022-10-01T17:02:02.606Z,17.08
2022-10-01T17:04:34.038Z,13.48
2022-10-01T17:07:02.004Z,14.38
2022-10-01T17:09:29.590Z,18.73
2022-10-01T17:11:58.248Z,18.13
2022-10-01T17:14:25.739Z,21.75
2022-10-01T17:16:53.779Z,17.15
2022-10-01T17:19:22.247Z,21.88
2022-10-01T17:21:49.676Z,19.70
2022-10-01T17:24:19.460Z,17.40
2022-10-01T17:26:47.366Z,15.00
2022-10-01T17:29:17.427Z,14.48
2022-10-01T17:31:46.800Z,16.00
2022-10-01T17:34:15.109Z,20.70
2022-10-01T17:36:42.571Z,21.13
2022-10-01T17:39:10.061Z,15.70
2022-10-01T17:41:37.685Z,14.93
2022-10-01T17:44:05.085Z,16.50
2022-10-01T17:46:35.602Z,14.98
2022-10-01T17:49:03.292Z,13.97
2022-10-01T17:51:30.843Z,18.70
2022-10-01T17:54:00.014Z,17.00
2022-10-01T17:56:27.548Z,16.13
2022-10-01T17:58:55.171Z,15.55
2022-10-01T18:01:23.019Z,13.23
2022-10-01T18:04:00.465Z,14.00
2022-10-01T18:06:27.946Z,14.15
2022-10-01T18:08:56.472Z,13.98
2022-10-01T18:11:27.474Z,14.90
2022-10-01T18:13:55.030Z,9.40
2022-10-01T18:16:23.030Z,10.48
2022-10-01T18:21:49.232Z,10.32
2022-10-01T18:24:17.151Z,10.23
2022-10-01T18:26:45.996Z,11.57
2022-10-01T18:29:25.144Z,10.50
2022-10-01T18:32:05.308Z,11.15
2022-10-01T18:34:40.594Z,11.10
2022-10-01T18:37:18.275Z,10.30
2022-10-01T18:39:53.291Z,11.03
2022-10-01T18:42:32.895Z,12.23
2022-10-01T18:45:02.709Z,8.27
2022-10-01T18:47:55.124Z,10.38
2022-10-01T18:50:52.758Z,8.95
2022-10-01T18:53:45.335Z,9.43
2022-10-01T18:56:21.543Z,9.13
2022-10-01T18:59:04.199Z,10.95
2022-10-01T19:01:43.468Z,9.60
2022-10-01T19:04:39.031Z,10.02
2022-10-01T19:07:33.638Z,10.40
2022-10-01T19:10:08.419Z,9.90
2022-10-01T19:13:02.094Z,10.75
2022-10-01T19:15:45.279Z,11.48
2022-10-01T19:18:31.124Z,10.88
2022-10-01T19:21:45.520Z,11.07
2022-10-01T19:24:38.539Z,8.98
2022-10-01T19:27:23.955Z,8.82
2022-10-01T19:30:02.972Z,11.43
2022-10-01T19:32:39.919Z,11.43
2022-10-01T19:35:17.431Z,8.97
2022-10-01T19:38:05.902Z,9.93
2022-10-01T19:40:39.167Z,9.43
2022-10-01T19:43:21.510Z,8.77
2022-10-01T19:46:15.412Z,10.65
2022-10-01T19:49:15.385Z,10.53
2022-10-01T19:51:52.308Z,9.55
2022-10-01T19:54:22.725Z,10.40
2022-10-01T19:56:54.689Z,9.88
2022-10-01T19:59:22.907Z,10.02
2022-10-01T20:01:59.184Z,11.87
2022-10-01T20:04:29.363Z,9.75
2022-10-01T20:07:11.839Z,11.10
2022-10-01T20:09:45.782Z,10.27
2022-10-01T20:12:36.436Z,9.57
2022-10-01T20:15:37.846Z,7.90
2022-10-01T20:18:14.868Z,8.75
2022-10-01T20:21:23.538Z,9.23
2022-10-01T20:24:08.288Z,9.52
2022-10-01T20:26:46.889Z,10.48
2022-10-01T20:29:25.848Z,11.67
2022-10-01T20:32:07.038Z,9.30
2022-10-01T20:34:52.873Z,9.38
2022-10-01T20:37:49.085Z,9.35
2022-10-01T20:40:40.873Z,9.82
2022-10-01T20:43:30.954Z,9.20
2022-10-01T20:46:03.474Z,7.72
2022-10-01T20:48:37.172Z,8.50
2022-10-01T20:51:16.216Z,9.88
2022-10-01T20:53:53.734Z,8.82
2022-10-01T20:56:34.013Z,9.20
2022-10-01T20:59:11.812Z,9.65
2022-10-01T21:01:46.571Z,10.63
2022-10-01T21:04:23.400Z,9.57
2022-10-01T21:07:01.454Z,9.15
2022-10-01T21:09:38.666Z,8.47
2022-10-01T21:12:16.240Z,10.57
2022-10-01T21:14:53.908Z,8.65
2022-10-01T21:17:40.490Z,8.55
2022-10-01T21:20:21.262Z,9.05
2022-10-01T21:23:35.384Z,9.23
2022-10-01T21:26:11.192Z,9.43
2022-10-01T21:28:56.798Z,9.07
2022-10-01T21:31:42.945Z,8.95
2022-10-01T21:34:22.701Z,8.80
2022-10-01T21:37:03.734Z,10.17
2022-10-01T21:39:41.093Z,10.55
2022-10-01T21:42:17.286Z,9.60
2022-10-01T21:45:06.458Z,9.55
2022-10-01T21:47:54.170Z,9.90
2022-10-01T21:50:46.815Z,9.13
2022-10-01T21:53:38.366Z,10.05
2022-10-01T21:56:14.353Z,9.07
2022-10-01T21:59:11.109Z,10.93
2022-10-01T22:02:15.088Z,9.55
2022-10-01T22:04:53.034Z,10.17
2022-10-01T22:07:42.454Z,9.15
2022-10-01T22:10:19.404Z,10.68
2022-10-01T22:12:52.187Z,9.68
2022-10-01T22:15:33.405Z,8.77
2022-10-01T22:18:05.088Z,8.20
2022-10-01T22:20:35.260Z,9.90
2022-10-01T22:23:09.429Z,8.98
2022-10-01T22:25:43.328Z,8.15
2022-10-01T22:28:19.004Z,7.95
2022-10-01T22:30:50.272Z,9.70
2022-10-01T22:33:33.137Z,9.32
2022-10-01T22:36:07.259Z,10.45
2022-10-01T22:38:44.731Z,11.73
2022-10-01T22:41:41.214Z,9.15
2022-10-01T22:44:20.532Z,8.10
2022-10-01T22:47:02.008Z,8.25
2022-10-01T22:49:55.077Z,14.82
2022-10-01T22:52:47.078Z,8.68
2022-10-01T22:55:37.201Z,9.52
2022-10-01T22:58:22.391Z,8.33
2022-10-01T23:01:12.402Z,8.18
2022-10-01T23:04:00.035Z,9.70
2022-10-01T23:06:45.651Z,11.10
2022-10-01T23:09:16.302Z,10.13
2022-10-01T23:11:58.759Z,10.77
2022-10-01T23:14:53.759Z,9.02
2022-10-01T23:17:35.316Z,10.18
2022-10-01T23:20:21.167Z,9.45
2022-10-01T23:22:54.904Z,9.35
2022-10-01T23:25:44.321Z,9.10
2022-10-01T23:28:42.217Z,9.43
2022-10-01T23:31:34.823Z,10.15
2022-10-01T23:34:40.558Z,9.60
2022-10-01T23:37:45.487Z,10.02
2022-10-01T23:40:20.955Z,10.10
2022-10-01T23:43:19.754Z,8.90
2022-10-01T23:45:55.338Z,9.80
2022-10-01T23:48:32.041Z,8.82
2022-10-01T23:51:14.843Z,8.43
2022-10-01T23:54:08.722Z,8.63
2022-10-01T23:56:51.504Z,10.27
2022-10-01T23:59:28.051Z,9.15
